sensor_id;sensor_type;location;lat;lon;timestamp;temperature;humidity
52621;DHT22;38515;53.160;6.990;2023-08-08T00:00:09;12.80;99.90
52621;DHT22;38515;53.160;6.990;2023-08-08T00:02:35;12.80;99.90
52621;DHT22;38515;53.160;6.990;2023-08-08T00:05:01;12.80;99.90
52621;DHT22;38515;53.160;6.990;2023-08-08T00:07:27;12.70;99.90
52621;DHT22;38515;53.160;6.990;2023-08-08T00:09:56;12.80;99.90
52621;DHT22;38515;53.160;6.990;2023-08-08T00:12:22;12.80;99.90
52621;DHT22;38515;53.160;6.990;2023-08-08T00:14:49;12.80;99.90
52621;DHT22;38515;53.160;6.990;2023-08-08T00:17:14;12.90;99.90
52621;DHT22;38515;53.160;6.990;2023-08-08T00:19:40;12.80;99.90
52621;DHT22;38515;53.160;6.990;2023-08-08T00:22:06;12.80;99.90
52621;DHT22;38515;53.160;6.990;2023-08-08T00:24:32;12.80;99.90
52621;DHT22;38515;53.160;6.990;2023-08-08T00:26:58;12.80;99.90
52621;DHT22;38515;53.160;6.990;2023-08-08T00:29:24;12.80;99.90
52621;DHT22;38515;53.160;6.990;2023-08-08T00:31:49;12.80;99.90
52621;DHT22;38515;53.160;6.990;2023-08-08T00:34:15;12.80;99.90
52621;DHT22;38515;53.160;6.990;2023-08-08T00:36:41;12.70;99.90
52621;DHT22;38515;53.160;6.990;2023-08-08T00:39:07;12.70;99.90
52621;DHT22;38515;53.160;6.990;2023-08-08T00:41:33;12.70;99.90
52621;DHT22;38515;53.160;6.990;2023-08-08T00:43:59;12.70;99.90
52621;DHT22;38515;53.160;6.990;2023-08-08T00:46:25;12.70;99.90
52621;DHT22;38515;53.160;6.990;2023-08-08T00:48:55;12.70;99.90
52621;DHT22;38515;53.160;6.990;2023-08-08T00:51:21;12.60;99.90
52621;DHT22;38515;53.160;6.990;2023-08-08T00:53:47;12.60;99.90
52621;DHT22;38515;53.160;6.990;2023-08-08T00:56:15;12.60;99.90
52621;DHT22;38515;53.160;6.990;2023-08-08T00:58:43;12.60;99.90
52621;DHT22;38515;53.160;6.990;2023-08-08T01:01:12;12.50;99.90
52621;DHT22;38515;53.160;6.990;2023-08-08T01:03:38;12.60;99.90
52621;DHT22;38515;53.160;6.990;2023-08-08T01:06:34;12.60;99.90
52621;DHT22;38515;53.160;6.990;2023-08-08T01:09:04;12.60;99.90
52621;DHT22;38515;53.160;6.990;2023-08-08T01:11:34;12.60;99.90
52621;DHT22;38515;53.160;6.990;2023-08-08T01:14:01;12.60;99.90
52621;DHT22;38515;53.160;6.990;2023-08-08T01:16:28;12.60;99.90
52621;DHT22;38515;53.160;6.990;2023-08-08T01:18:54;12.60;99.90
52621;DHT22;38515;53.160;6.990;2023-08-08T01:21:20;12.60;99.90
52621;DHT22;38515;53.160;6.990;2023-08-08T01:24:09;12.50;99.90
52621;DHT22;38515;53.160;6.990;2023-08-08T01:26:35;12.60;99.90
52621;DHT22;38515;53.160;6.990;2023-08-08T01:29:01;12.60;99.90
52621;DHT22;38515;53.160;6.990;2023-08-08T01:31:27;12.60;99.90
52621;DHT22;38515;53.160;6.990;2023-08-08T01:33:53;12.50;99.90
52621;DHT22;38515;53.160;6.990;2023-08-08T01:36:35;12.40;99.90
52621;DHT22;38515;53.160;6.990;2023-08-08T01:39:05;12.50;99.90
52621;DHT22;38515;53.160;6.990;2023-08-08T01:41:38;12.40;99.90
52621;DHT22;38515;53.160;6.990;2023-08-08T01:44:05;12.30;99.90
52621;DHT22;38515;53.160;6.990;2023-08-08T01:46:32;12.30;99.90
52621;DHT22;38515;53.160;6.990;2023-08-08T01:48:59;12.30;99.90
52621;DHT22;38515;53.160;6.990;2023-08-08T01:51:26;12.30;99.90
52621;DHT22;38515;53.160;6.990;2023-08-08T01:53:52;12.20;99.90
52621;DHT22;38515;53.160;6.990;2023-08-08T01:56:18;12.30;99.90
52621;DHT22;38515;53.160;6.990;2023-08-08T01:58:43;12.20;99.90
52621;DHT22;38515;53.160;6.990;2023-08-08T02:01:09;12.20;99.90
52621;DHT22;38515;53.160;6.990;2023-08-08T02:03:35;12.20;99.90
52621;DHT22;38515;53.160;6.990;2023-08-08T02:06:01;12.30;99.90
52621;DHT22;38515;53.160;6.990;2023-08-08T02:08:27;12.30;99.90
52621;DHT22;38515;53.160;6.990;2023-08-08T02:10:53;12.30;99.90
52621;DHT22;38515;53.160;6.990;2023-08-08T02:13:19;12.40;99.90
52621;DHT22;38515;53.160;6.990;2023-08-08T02:15:45;12.40;99.90
52621;DHT22;38515;53.160;6.990;2023-08-08T02:18:11;12.50;99.90
52621;DHT22;38515;53.160;6.990;2023-08-08T02:20:37;12.50;99.90
52621;DHT22;38515;53.160;6.990;2023-08-08T02:23:03;12.50;99.90
52621;DHT22;38515;53.160;6.990;2023-08-08T02:25:28;12.50;99.90
52621;DHT22;38515;53.160;6.990;2023-08-08T02:27:56;12.50;99.90
52621;DHT22;38515;53.160;6.990;2023-08-08T02:30:22;12.60;99.90
52621;DHT22;38515;53.160;6.990;2023-08-08T02:32:48;12.70;99.90
52621;DHT22;38515;53.160;6.990;2023-08-08T02:35:14;12.70;99.90
52621;DHT22;38515;53.160;6.990;2023-08-08T02:37:40;12.70;99.90
52621;DHT22;38515;53.160;6.990;2023-08-08T02:40:06;12.70;99.90
52621;DHT22;38515;53.160;6.990;2023-08-08T02:42:33;12.70;99.90
52621;DHT22;38515;53.160;6.990;2023-08-08T02:44:59;12.70;99.90
52621;DHT22;38515;53.160;6.990;2023-08-08T02:47:25;12.70;99.90
52621;DHT22;38515;53.160;6.990;2023-08-08T02:49:51;12.80;99.90
52621;DHT22;38515;53.160;6.990;2023-08-08T02:52:16;12.70;99.90
52621;DHT22;38515;53.160;6.990;2023-08-08T02:54:42;12.70;99.90
52621;DHT22;38515;53.160;6.990;2023-08-08T02:57:08;12.80;99.90
52621;DHT22;38515;53.160;6.990;2023-08-08T02:59:37;12.80;99.90
52621;DHT22;38515;53.160;6.990;2023-08-08T03:02:04;12.90;99.90
52621;DHT22;38515;53.160;6.990;2023-08-08T03:04:29;12.90;99.90
52621;DHT22;38515;53.160;6.990;2023-08-08T03:06:55;13.00;99.90
52621;DHT22;38515;53.160;6.990;2023-08-08T03:09:21;12.90;99.90
52621;DHT22;38515;53.160;6.990;2023-08-08T03:11:47;12.90;99.90
52621;DHT22;38515;53.160;6.990;2023-08-08T03:14:13;12.90;99.90
52621;DHT22;38515;53.160;6.990;2023-08-08T03:16:39;12.90;99.90
52621;DHT22;38515;53.160;6.990;2023-08-08T03:19:05;12.90;99.90
52621;DHT22;38515;53.160;6.990;2023-08-08T03:21:31;12.80;99.90
52621;DHT22;38515;53.160;6.990;2023-08-08T03:23:57;12.90;99.90
52621;DHT22;38515;53.160;6.990;2023-08-08T03:26:24;12.90;99.90
52621;DHT22;38515;53.160;6.990;2023-08-08T03:28:50;12.90;99.90
52621;DHT22;38515;53.160;6.990;2023-08-08T03:31:19;12.70;99.90
52621;DHT22;38515;53.160;6.990;2023-08-08T03:33:45;12.90;99.90
52621;DHT22;38515;53.160;6.990;2023-08-08T03:36:11;12.90;99.90
52621;DHT22;38515;53.160;6.990;2023-08-08T03:38:36;13.00;99.90
52621;DHT22;38515;53.160;6.990;2023-08-08T03:41:04;13.00;99.90
52621;DHT22;38515;53.160;6.990;2023-08-08T03:43:30;13.10;99.90
52621;DHT22;38515;53.160;6.990;2023-08-08T03:45:55;13.10;99.90
52621;DHT22;38515;53.160;6.990;2023-08-08T03:48:21;13.10;99.90
52621;DHT22;38515;53.160;6.990;2023-08-08T03:50:47;13.10;99.90
52621;DHT22;38515;53.160;6.990;2023-08-08T03:53:13;13.00;99.90
52621;DHT22;38515;53.160;6.990;2023-08-08T03:55:39;13.00;99.90
52621;DHT22;38515;53.160;6.990;2023-08-08T03:58:05;13.00;99.90
52621;DHT22;38515;53.160;6.990;2023-08-08T04:00:33;12.90;99.90
52621;DHT22;38515;53.160;6.990;2023-08-08T04:02:59;12.90;99.90
52621;DHT22;38515;53.160;6.990;2023-08-08T04:05:25;12.80;99.90
52621;DHT22;38515;53.160;6.990;2023-08-08T04:07:51;12.80;99.90
52621;DHT22;38515;53.160;6.990;2023-08-08T04:10:16;12.70;99.90
52621;DHT22;38515;53.160;6.990;2023-08-08T04:12:43;12.70;99.90
52621;DHT22;38515;53.160;6.990;2023-08-08T04:15:09;12.60;99.90
52621;DHT22;38515;53.160;6.990;2023-08-08T04:17:35;12.70;99.90
52621;DHT22;38515;53.160;6.990;2023-08-08T04:20:00;12.60;99.90
52621;DHT22;38515;53.160;6.990;2023-08-08T04:22:27;12.60;99.90
52621;DHT22;38515;53.160;6.990;2023-08-08T04:24:52;12.50;99.90
52621;DHT22;38515;53.160;6.990;2023-08-08T04:27:18;12.50;99.90
52621;DHT22;38515;53.160;6.990;2023-08-08T04:29:44;12.50;99.90
52621;DHT22;38515;53.160;6.990;2023-08-08T04:32:10;12.50;99.90
52621;DHT22;38515;53.160;6.990;2023-08-08T04:34:36;12.50;99.90
52621;DHT22;38515;53.160;6.990;2023-08-08T04:37:02;12.50;99.90
52621;DHT22;38515;53.160;6.990;2023-08-08T04:39:28;12.50;99.90
52621;DHT22;38515;53.160;6.990;2023-08-08T04:41:54;12.50;99.90
52621;DHT22;38515;53.160;6.990;2023-08-08T04:44:19;12.50;99.90
52621;DHT22;38515;53.160;6.990;2023-08-08T04:46:45;12.50;99.90
52621;DHT22;38515;53.160;6.990;2023-08-08T04:49:11;12.50;99.90
52621;DHT22;38515;53.160;6.990;2023-08-08T04:51:37;12.50;99.90
52621;DHT22;38515;53.160;6.990;2023-08-08T04:54:03;12.50;99.90
52621;DHT22;38515;53.160;6.990;2023-08-08T04:56:29;12.60;99.90
52621;DHT22;38515;53.160;6.990;2023-08-08T04:58:55;12.50;99.90
52621;DHT22;38515;53.160;6.990;2023-08-08T05:01:20;12.60;99.90
52621;DHT22;38515;53.160;6.990;2023-08-08T05:03:47;12.60;99.90
52621;DHT22;38515;53.160;6.990;2023-08-08T05:06:14;12.70;99.90
52621;DHT22;38515;53.160;6.990;2023-08-08T05:08:39;12.80;99.90
52621;DHT22;38515;53.160;6.990;2023-08-08T05:11:05;12.80;99.90
52621;DHT22;38515;53.160;6.990;2023-08-08T05:13:31;13.00;99.90
52621;DHT22;38515;53.160;6.990;2023-08-08T05:15:57;13.10;99.90
52621;DHT22;38515;53.160;6.990;2023-08-08T05:18:23;13.10;99.90
52621;DHT22;38515;53.160;6.990;2023-08-08T05:20:49;13.20;99.90
52621;DHT22;38515;53.160;6.990;2023-08-08T05:23:15;13.20;99.90
52621;DHT22;38515;53.160;6.990;2023-08-08T05:25:41;13.30;99.90
52621;DHT22;38515;53.160;6.990;2023-08-08T05:28:06;13.30;99.90
52621;DHT22;38515;53.160;6.990;2023-08-08T05:30:33;13.40;99.90
52621;DHT22;38515;53.160;6.990;2023-08-08T05:32:59;13.40;99.90
52621;DHT22;38515;53.160;6.990;2023-08-08T05:35:24;13.50;99.90
52621;DHT22;38515;53.160;6.990;2023-08-08T05:37:50;13.50;99.90
52621;DHT22;38515;53.160;6.990;2023-08-08T05:40:16;13.60;99.90
52621;DHT22;38515;53.160;6.990;2023-08-08T05:42:42;13.70;99.90
52621;DHT22;38515;53.160;6.990;2023-08-08T05:45:08;13.70;99.90
52621;DHT22;38515;53.160;6.990;2023-08-08T05:47:34;13.70;99.90
52621;DHT22;38515;53.160;6.990;2023-08-08T05:50:00;13.80;99.90
52621;DHT22;38515;53.160;6.990;2023-08-08T05:52:26;14.00;99.90
52621;DHT22;38515;53.160;6.990;2023-08-08T05:54:51;14.30;99.90
52621;DHT22;38515;53.160;6.990;2023-08-08T05:57:17;14.70;99.90
52621;DHT22;38515;53.160;6.990;2023-08-08T05:59:43;15.10;99.90
52621;DHT22;38515;53.160;6.990;2023-08-08T06:02:10;15.30;99.90
52621;DHT22;38515;53.160;6.990;2023-08-08T06:04:36;15.60;99.90
52621;DHT22;38515;53.160;6.990;2023-08-08T06:07:02;16.00;99.90
52621;DHT22;38515;53.160;6.990;2023-08-08T06:09:28;16.30;99.90
52621;DHT22;38515;53.160;6.990;2023-08-08T06:11:54;16.60;99.90
52621;DHT22;38515;53.160;6.990;2023-08-08T06:14:20;16.70;99.90
52621;DHT22;38515;53.160;6.990;2023-08-08T06:16:45;16.90;99.90
52621;DHT22;38515;53.160;6.990;2023-08-08T06:19:12;17.00;99.90
52621;DHT22;38515;53.160;6.990;2023-08-08T06:21:40;17.00;99.90
52621;DHT22;38515;53.160;6.990;2023-08-08T06:24:06;17.00;99.90
52621;DHT22;38515;53.160;6.990;2023-08-08T06:26:32;17.20;99.90
52621;DHT22;38515;53.160;6.990;2023-08-08T06:28:58;17.50;99.90
52621;DHT22;38515;53.160;6.990;2023-08-08T06:31:27;17.90;99.90
52621;DHT22;38515;53.160;6.990;2023-08-08T06:33:56;18.20;99.90
52621;DHT22;38515;53.160;6.990;2023-08-08T06:36:27;18.20;99.90
52621;DHT22;38515;53.160;6.990;2023-08-08T06:38:56;17.90;99.90
52621;DHT22;38515;53.160;6.990;2023-08-08T06:41:25;17.90;99.90
52621;DHT22;38515;53.160;6.990;2023-08-08T06:43:51;18.00;99.90
52621;DHT22;38515;53.160;6.990;2023-08-08T06:46:17;18.10;99.90
52621;DHT22;38515;53.160;6.990;2023-08-08T06:48:46;18.20;99.90
52621;DHT22;38515;53.160;6.990;2023-08-08T06:51:12;18.20;99.90
52621;DHT22;38515;53.160;6.990;2023-08-08T06:53:38;18.10;99.90
52621;DHT22;38515;53.160;6.990;2023-08-08T06:56:04;18.10;99.90
52621;DHT22;38515;53.160;6.990;2023-08-08T06:58:30;18.00;99.90
52621;DHT22;38515;53.160;6.990;2023-08-08T07:00:56;17.90;99.90
52621;DHT22;38515;53.160;6.990;2023-08-08T07:03:22;17.70;99.90
52621;DHT22;38515;53.160;6.990;2023-08-08T07:05:48;17.80;99.90
52621;DHT22;38515;53.160;6.990;2023-08-08T07:08:18;17.80;99.90
52621;DHT22;38515;53.160;6.990;2023-08-08T07:10:45;17.80;99.90
52621;DHT22;38515;53.160;6.990;2023-08-08T07:13:10;17.60;99.90
52621;DHT22;38515;53.160;6.990;2023-08-08T07:15:36;17.60;99.90
52621;DHT22;38515;53.160;6.990;2023-08-08T07:18:02;17.60;99.90
52621;DHT22;38515;53.160;6.990;2023-08-08T07:20:28;17.60;99.90
52621;DHT22;38515;53.160;6.990;2023-08-08T07:22:54;17.60;99.90
52621;DHT22;38515;53.160;6.990;2023-08-08T07:25:20;17.60;99.90
52621;DHT22;38515;53.160;6.990;2023-08-08T07:27:46;17.60;99.90
52621;DHT22;38515;53.160;6.990;2023-08-08T07:30:12;17.60;99.90
52621;DHT22;38515;53.160;6.990;2023-08-08T07:32:38;17.50;99.90
52621;DHT22;38515;53.160;6.990;2023-08-08T07:35:04;17.40;99.90
52621;DHT22;38515;53.160;6.990;2023-08-08T07:37:34;17.20;99.90
52621;DHT22;38515;53.160;6.990;2023-08-08T07:40:01;17.10;99.90
52621;DHT22;38515;53.160;6.990;2023-08-08T07:42:27;17.10;99.90
52621;DHT22;38515;53.160;6.990;2023-08-08T07:44:53;17.20;99.90
52621;DHT22;38515;53.160;6.990;2023-08-08T07:47:20;17.40;99.90
52621;DHT22;38515;53.160;6.990;2023-08-08T07:49:47;17.50;99.90
52621;DHT22;38515;53.160;6.990;2023-08-08T07:52:12;17.50;99.90
52621;DHT22;38515;53.160;6.990;2023-08-08T07:54:38;17.40;99.90
52621;DHT22;38515;53.160;6.990;2023-08-08T07:57:04;17.30;99.90
52621;DHT22;38515;53.160;6.990;2023-08-08T07:59:30;17.40;99.90
52621;DHT22;38515;53.160;6.990;2023-08-08T08:01:56;17.40;99.90
52621;DHT22;38515;53.160;6.990;2023-08-08T08:04:22;17.50;99.90
52621;DHT22;38515;53.160;6.990;2023-08-08T08:06:48;17.50;99.90
52621;DHT22;38515;53.160;6.990;2023-08-08T08:09:14;17.40;99.90
52621;DHT22;38515;53.160;6.990;2023-08-08T08:11:40;17.30;99.90
52621;DHT22;38515;53.160;6.990;2023-08-08T08:14:13;17.10;99.90
52621;DHT22;38515;53.160;6.990;2023-08-08T08:16:46;17.00;99.90
52621;DHT22;38515;53.160;6.990;2023-08-08T08:19:12;17.00;99.90
52621;DHT22;38515;53.160;6.990;2023-08-08T08:21:38;17.10;99.90
52621;DHT22;38515;53.160;6.990;2023-08-08T08:24:04;17.30;99.90
52621;DHT22;38515;53.160;6.990;2023-08-08T08:26:33;17.50;99.90
52621;DHT22;38515;53.160;6.990;2023-08-08T08:28:59;17.50;99.90
52621;DHT22;38515;53.160;6.990;2023-08-08T08:31:25;17.40;99.90
52621;DHT22;38515;53.160;6.990;2023-08-08T08:33:51;17.20;99.90
52621;DHT22;38515;53.160;6.990;2023-08-08T08:36:17;17.10;99.90
52621;DHT22;38515;53.160;6.990;2023-08-08T08:38:43;17.20;99.90
52621;DHT22;38515;53.160;6.990;2023-08-08T08:41:09;17.30;99.90
52621;DHT22;38515;53.160;6.990;2023-08-08T08:43:39;17.30;99.90
52621;DHT22;38515;53.160;6.990;2023-08-08T08:46:06;17.30;99.90
52621;DHT22;38515;53.160;6.990;2023-08-08T08:48:36;17.40;99.90
52621;DHT22;38515;53.160;6.990;2023-08-08T08:51:02;17.50;99.90
52621;DHT22;38515;53.160;6.990;2023-08-08T08:53:31;17.50;99.90
52621;DHT22;38515;53.160;6.990;2023-08-08T08:55:58;17.50;99.90
52621;DHT22;38515;53.160;6.990;2023-08-08T08:58:25;17.40;99.90
52621;DHT22;38515;53.160;6.990;2023-08-08T09:00:51;17.40;99.90
52621;DHT22;38515;53.160;6.990;2023-08-08T09:03:18;17.40;99.90
52621;DHT22;38515;53.160;6.990;2023-08-08T09:05:45;17.40;99.90
52621;DHT22;38515;53.160;6.990;2023-08-08T09:08:11;17.40;99.90
52621;DHT22;38515;53.160;6.990;2023-08-08T09:10:41;17.40;99.90
52621;DHT22;38515;53.160;6.990;2023-08-08T09:13:06;17.30;99.90
52621;DHT22;38515;53.160;6.990;2023-08-08T09:15:33;17.30;99.90
52621;DHT22;38515;53.160;6.990;2023-08-08T09:18:00;17.30;99.90
52621;DHT22;38515;53.160;6.990;2023-08-08T09:20:27;17.30;99.90
52621;DHT22;38515;53.160;6.990;2023-08-08T09:22:56;17.30;99.90
52621;DHT22;38515;53.160;6.990;2023-08-08T09:25:23;17.30;99.90
52621;DHT22;38515;53.160;6.990;2023-08-08T09:27:51;17.50;99.90
52621;DHT22;38515;53.160;6.990;2023-08-08T09:30:19;17.70;99.90
52621;DHT22;38515;53.160;6.990;2023-08-08T09:32:45;17.80;99.90
52621;DHT22;38515;53.160;6.990;2023-08-08T09:35:11;17.80;99.90
52621;DHT22;38515;53.160;6.990;2023-08-08T09:37:38;17.90;99.90
52621;DHT22;38515;53.160;6.990;2023-08-08T09:40:05;18.00;99.90
52621;DHT22;38515;53.160;6.990;2023-08-08T09:42:35;18.00;99.90
52621;DHT22;38515;53.160;6.990;2023-08-08T09:45:01;18.00;99.90
52621;DHT22;38515;53.160;6.990;2023-08-08T09:47:27;17.70;99.90
52621;DHT22;38515;53.160;6.990;2023-08-08T09:50:00;17.80;99.90
52621;DHT22;38515;53.160;6.990;2023-08-08T09:52:30;17.70;99.90
52621;DHT22;38515;53.160;6.990;2023-08-08T09:54:57;17.90;99.90
52621;DHT22;38515;53.160;6.990;2023-08-08T09:57:23;17.90;99.90
52621;DHT22;38515;53.160;6.990;2023-08-08T09:59:51;18.10;99.90
52621;DHT22;38515;53.160;6.990;2023-08-08T10:02:18;18.10;99.90
52621;DHT22;38515;53.160;6.990;2023-08-08T10:04:47;17.90;99.90
52621;DHT22;38515;53.160;6.990;2023-08-08T10:07:14;17.90;99.90
52621;DHT22;38515;53.160;6.990;2023-08-08T10:09:41;17.80;99.90
52621;DHT22;38515;53.160;6.990;2023-08-08T10:12:07;18.00;99.90
52621;DHT22;38515;53.160;6.990;2023-08-08T10:14:37;18.10;99.90
52621;DHT22;38515;53.160;6.990;2023-08-08T10:17:04;18.20;99.90
52621;DHT22;38515;53.160;6.990;2023-08-08T10:19:31;18.20;99.90
52621;DHT22;38515;53.160;6.990;2023-08-08T10:21:59;18.00;99.90
52621;DHT22;38515;53.160;6.990;2023-08-08T10:24:25;17.60;99.90
52621;DHT22;38515;53.160;6.990;2023-08-08T10:26:57;17.30;99.90
52621;DHT22;38515;53.160;6.990;2023-08-08T10:29:25;17.10;99.90
52621;DHT22;38515;53.160;6.990;2023-08-08T10:31:53;16.90;99.90
52621;DHT22;38515;53.160;6.990;2023-08-08T10:34:40;16.60;99.90
52621;DHT22;38515;53.160;6.990;2023-08-08T10:37:10;16.40;99.90
52621;DHT22;38515;53.160;6.990;2023-08-08T10:39:37;15.90;99.90
52621;DHT22;38515;53.160;6.990;2023-08-08T10:42:06;15.50;99.90
52621;DHT22;38515;53.160;6.990;2023-08-08T10:44:31;15.20;99.90
52621;DHT22;38515;53.160;6.990;2023-08-08T10:47:05;15.00;99.90
52621;DHT22;38515;53.160;6.990;2023-08-08T10:49:31;14.90;99.90
52621;DHT22;38515;53.160;6.990;2023-08-08T10:52:02;15.00;99.90
52621;DHT22;38515;53.160;6.990;2023-08-08T10:54:28;15.20;99.90
52621;DHT22;38515;53.160;6.990;2023-08-08T10:56:58;15.40;99.90
52621;DHT22;38515;53.160;6.990;2023-08-08T10:59:36;15.70;99.90
52621;DHT22;38515;53.160;6.990;2023-08-08T11:02:02;15.90;99.90
52621;DHT22;38515;53.160;6.990;2023-08-08T11:04:29;16.10;99.90
52621;DHT22;38515;53.160;6.990;2023-08-08T11:06:58;16.10;99.90
52621;DHT22;38515;53.160;6.990;2023-08-08T11:09:25;16.20;99.90
52621;DHT22;38515;53.160;6.990;2023-08-08T11:11:52;16.10;99.90
52621;DHT22;38515;53.160;6.990;2023-08-08T11:14:20;16.20;99.90
52621;DHT22;38515;53.160;6.990;2023-08-08T11:16:47;16.30;99.90
52621;DHT22;38515;53.160;6.990;2023-08-08T11:19:14;16.40;99.90
52621;DHT22;38515;53.160;6.990;2023-08-08T11:21:43;16.40;99.90
52621;DHT22;38515;53.160;6.990;2023-08-08T11:24:10;16.40;99.90
52621;DHT22;38515;53.160;6.990;2023-08-08T11:26:39;16.40;99.90
52621;DHT22;38515;53.160;6.990;2023-08-08T11:29:06;16.50;99.90
52621;DHT22;38515;53.160;6.990;2023-08-08T11:31:33;16.80;99.90
52621;DHT22;38515;53.160;6.990;2023-08-08T11:34:00;17.10;99.90
52621;DHT22;38515;53.160;6.990;2023-08-08T11:36:30;17.40;99.90
52621;DHT22;38515;53.160;6.990;2023-08-08T11:39:03;17.60;99.90
52621;DHT22;38515;53.160;6.990;2023-08-08T11:41:35;17.70;99.90
52621;DHT22;38515;53.160;6.990;2023-08-08T11:44:05;17.90;99.90
52621;DHT22;38515;53.160;6.990;2023-08-08T11:46:31;18.00;99.90
52621;DHT22;38515;53.160;6.990;2023-08-08T11:49:04;18.60;99.90
52621;DHT22;38515;53.160;6.990;2023-08-08T11:51:33;18.40;99.90
52621;DHT22;38515;53.160;6.990;2023-08-08T11:54:00;18.70;99.90
52621;DHT22;38515;53.160;6.990;2023-08-08T11:56:26;18.70;99.90
52621;DHT22;38515;53.160;6.990;2023-08-08T11:58:52;18.80;99.90
52621;DHT22;38515;53.160;6.990;2023-08-08T12:01:22;18.90;99.90
52621;DHT22;38515;53.160;6.990;2023-08-08T12:03:48;19.00;99.90
52621;DHT22;38515;53.160;6.990;2023-08-08T12:06:18;19.10;99.90
52621;DHT22;38515;53.160;6.990;2023-08-08T12:08:44;19.20;99.90
52621;DHT22;38515;53.160;6.990;2023-08-08T12:11:11;19.10;99.90
52621;DHT22;38515;53.160;6.990;2023-08-08T12:13:40;19.10;99.90
52621;DHT22;38515;53.160;6.990;2023-08-08T12:16:11;19.10;99.90
52621;DHT22;38515;53.160;6.990;2023-08-08T12:18:38;19.00;99.90
52621;DHT22;38515;53.160;6.990;2023-08-08T12:21:05;19.00;99.90
52621;DHT22;38515;53.160;6.990;2023-08-08T12:23:33;18.80;99.90
52621;DHT22;38515;53.160;6.990;2023-08-08T12:25:59;18.60;99.90
52621;DHT22;38515;53.160;6.990;2023-08-08T12:28:26;18.40;99.90
52621;DHT22;38515;53.160;6.990;2023-08-08T12:30:52;18.40;99.90
52621;DHT22;38515;53.160;6.990;2023-08-08T12:33:17;18.40;99.90
52621;DHT22;38515;53.160;6.990;2023-08-08T12:35:43;18.50;99.90
52621;DHT22;38515;53.160;6.990;2023-08-08T12:38:09;18.50;99.90
52621;DHT22;38515;53.160;6.990;2023-08-08T12:40:36;18.60;99.90
52621;DHT22;38515;53.160;6.990;2023-08-08T12:43:02;18.60;99.90
52621;DHT22;38515;53.160;6.990;2023-08-08T12:45:27;18.40;99.90
52621;DHT22;38515;53.160;6.990;2023-08-08T12:47:53;18.10;99.90
52621;DHT22;38515;53.160;6.990;2023-08-08T12:50:22;17.80;99.90
52621;DHT22;38515;53.160;6.990;2023-08-08T12:52:49;17.50;99.90
52621;DHT22;38515;53.160;6.990;2023-08-08T12:55:15;17.50;99.90
52621;DHT22;38515;53.160;6.990;2023-08-08T12:57:43;17.50;99.90
52621;DHT22;38515;53.160;6.990;2023-08-08T13:00:14;17.60;99.90
52621;DHT22;38515;53.160;6.990;2023-08-08T13:02:40;17.70;99.90
52621;DHT22;38515;53.160;6.990;2023-08-08T13:05:07;17.70;99.90
52621;DHT22;38515;53.160;6.990;2023-08-08T13:07:35;18.00;99.90
52621;DHT22;38515;53.160;6.990;2023-08-08T13:10:04;18.00;99.90
52621;DHT22;38515;53.160;6.990;2023-08-08T13:12:30;17.90;99.90
52621;DHT22;38515;53.160;6.990;2023-08-08T13:14:56;18.00;99.90
52621;DHT22;38515;53.160;6.990;2023-08-08T13:17:22;17.90;99.90
52621;DHT22;38515;53.160;6.990;2023-08-08T13:19:48;17.80;99.90
52621;DHT22;38515;53.160;6.990;2023-08-08T13:22:16;17.80;99.90
52621;DHT22;38515;53.160;6.990;2023-08-08T13:24:42;18.00;99.90
52621;DHT22;38515;53.160;6.990;2023-08-08T13:27:12;17.90;99.90
52621;DHT22;38515;53.160;6.990;2023-08-08T13:29:38;17.80;99.90
52621;DHT22;38515;53.160;6.990;2023-08-08T13:32:04;17.80;99.90
52621;DHT22;38515;53.160;6.990;2023-08-08T13:34:30;17.70;99.90
52621;DHT22;38515;53.160;6.990;2023-08-08T13:36:56;17.60;99.90
52621;DHT22;38515;53.160;6.990;2023-08-08T13:39:21;17.70;99.90
52621;DHT22;38515;53.160;6.990;2023-08-08T13:41:47;17.80;99.90
52621;DHT22;38515;53.160;6.990;2023-08-08T13:44:13;17.70;99.90
52621;DHT22;38515;53.160;6.990;2023-08-08T13:46:39;17.60;99.90
52621;DHT22;38515;53.160;6.990;2023-08-08T13:49:05;17.70;99.90
52621;DHT22;38515;53.160;6.990;2023-08-08T13:51:31;17.80;99.90
52621;DHT22;38515;53.160;6.990;2023-08-08T13:53:57;17.90;99.90
52621;DHT22;38515;53.160;6.990;2023-08-08T13:56:23;17.90;99.90
52621;DHT22;38515;53.160;6.990;2023-08-08T13:58:49;17.90;99.90
52621;DHT22;38515;53.160;6.990;2023-08-08T14:01:15;17.80;99.90
52621;DHT22;38515;53.160;6.990;2023-08-08T14:03:41;17.80;99.90
52621;DHT22;38515;53.160;6.990;2023-08-08T14:06:07;17.70;99.90
52621;DHT22;38515;53.160;6.990;2023-08-08T14:08:36;17.50;99.90
52621;DHT22;38515;53.160;6.990;2023-08-08T14:11:02;17.40;99.90
52621;DHT22;38515;53.160;6.990;2023-08-08T14:13:28;17.50;99.90
52621;DHT22;38515;53.160;6.990;2023-08-08T14:15:54;17.50;99.90
52621;DHT22;38515;53.160;6.990;2023-08-08T14:18:21;17.70;99.90
52621;DHT22;38515;53.160;6.990;2023-08-08T14:20:47;17.90;99.90
52621;DHT22;38515;53.160;6.990;2023-08-08T14:23:13;18.10;99.90
52621;DHT22;38515;53.160;6.990;2023-08-08T14:25:44;18.20;99.90
52621;DHT22;38515;53.160;6.990;2023-08-08T14:28:10;18.20;99.90
52621;DHT22;38515;53.160;6.990;2023-08-08T14:30:36;18.20;99.90
52621;DHT22;38515;53.160;6.990;2023-08-08T14:33:02;18.00;99.90
52621;DHT22;38515;53.160;6.990;2023-08-08T14:35:28;17.90;99.90
52621;DHT22;38515;53.160;6.990;2023-08-08T14:37:55;17.80;99.90
52621;DHT22;38515;53.160;6.990;2023-08-08T14:40:21;17.90;99.90
52621;DHT22;38515;53.160;6.990;2023-08-08T14:42:46;18.10;99.90
52621;DHT22;38515;53.160;6.990;2023-08-08T14:45:12;18.30;99.90
52621;DHT22;38515;53.160;6.990;2023-08-08T14:47:38;18.40;99.90
52621;DHT22;38515;53.160;6.990;2023-08-08T14:50:06;18.40;99.90
52621;DHT22;38515;53.160;6.990;2023-08-08T14:52:32;18.50;99.90
52621;DHT22;38515;53.160;6.990;2023-08-08T14:54:58;18.30;99.90
52621;DHT22;38515;53.160;6.990;2023-08-08T14:57:24;18.00;99.90
52621;DHT22;38515;53.160;6.990;2023-08-08T14:59:53;17.80;99.90
52621;DHT22;38515;53.160;6.990;2023-08-08T15:02:19;17.70;99.90
52621;DHT22;38515;53.160;6.990;2023-08-08T15:04:45;17.70;99.90
52621;DHT22;38515;53.160;6.990;2023-08-08T15:07:11;17.70;99.90
52621;DHT22;38515;53.160;6.990;2023-08-08T15:09:37;17.90;99.90
52621;DHT22;38515;53.160;6.990;2023-08-08T15:12:04;17.90;99.90
52621;DHT22;38515;53.160;6.990;2023-08-08T15:14:34;17.70;99.90
52621;DHT22;38515;53.160;6.990;2023-08-08T15:17:01;17.50;99.90
52621;DHT22;38515;53.160;6.990;2023-08-08T15:19:27;17.60;99.90
52621;DHT22;38515;53.160;6.990;2023-08-08T15:21:54;17.70;99.90
52621;DHT22;38515;53.160;6.990;2023-08-08T15:24:20;17.90;99.90
52621;DHT22;38515;53.160;6.990;2023-08-08T15:26:49;18.00;99.90